Terminal Aerodrome Forecast
Issued by NWS

Home | Current Version | Previous Version | Text Only | Print | Product List | Glossary On
Versions: 1 2 3 4 5 6 7 8 9 10 11 12 13 14 15
395
FTUS44 KLZK 160951 AAB
TAFLIT
TAF AMD
KLIT 160951Z 1610/1706 34013G19KT P6SM SCT028 OVC050
      TEMPO 1610/1612 -SN
     FM161800 32011KT P6SM SCT040 BKN250
     FM170000 34009KT P6SM SCT250=

USA.gov is the U.S. government's official web portal to all federal, state and local government web resources and services.